sensor_id;sensor_type;location;lat;lon;timestamp;pressure;altitude;pressure_sealevel;temperature;humidity
42633;BME280;28261;53.304;-6.284;2023-09-19T00:00:32;99622.97;;;11.39;100.00
42633;BME280;28261;53.304;-6.284;2023-09-19T00:02:38;99628.13;;;11.41;100.00
42633;BME280;28261;53.304;-6.284;2023-09-19T00:04:42;99615.84;;;11.40;100.00
42633;BME280;28261;53.304;-6.284;2023-09-19T00:06:45;99615.59;;;11.43;100.00
42633;BME280;28261;53.304;-6.284;2023-09-19T00:08:49;99619.06;;;11.43;100.00
42633;BME280;28261;53.304;-6.284;2023-09-19T00:10:54;99623.41;;;11.44;100.00
42633;BME280;28261;53.304;-6.284;2023-09-19T00:12:58;99629.41;;;11.46;100.00
42633;BME280;28261;53.304;-6.284;2023-09-19T00:15:03;99634.72;;;11.46;100.00
42633;BME280;28261;53.304;-6.284;2023-09-19T00:17:08;99626.75;;;11.46;100.00
42633;BME280;28261;53.304;-6.284;2023-09-19T00:19:14;99623.13;;;11.47;100.00
42633;BME280;28261;53.304;-6.284;2023-09-19T00:21:18;99619.75;;;11.45;100.00
42633;BME280;28261;53.304;-6.284;2023-09-19T00:23:22;99621.44;;;11.46;100.00
42633;BME280;28261;53.304;-6.284;2023-09-19T00:25:26;99642.53;;;11.48;100.00
42633;BME280;28261;53.304;-6.284;2023-09-19T00:27:30;99637.38;;;11.46;100.00
42633;BME280;28261;53.304;-6.284;2023-09-19T00:29:35;99641.72;;;11.47;100.00
42633;BME280;28261;53.304;-6.284;2023-09-19T00:31:39;99643.41;;;11.48;100.00
42633;BME280;28261;53.304;-6.284;2023-09-19T00:33:43;99637.22;;;11.48;100.00
42633;BME280;28261;53.304;-6.284;2023-09-19T00:35:52;99632.91;;;11.47;100.00
42633;BME280;28261;53.304;-6.284;2023-09-19T00:37:55;99630.38;;;11.45;100.00
42633;BME280;28261;53.304;-6.284;2023-09-19T00:39:58;99630.38;;;11.45;100.00
42633;BME280;28261;53.304;-6.284;2023-09-19T00:42:01;99638.34;;;11.45;100.00
42633;BME280;28261;53.304;-6.284;2023-09-19T00:44:07;99641.13;;;11.44;100.00
42633;BME280;28261;53.304;-6.284;2023-09-19T00:46:11;99635.00;;;11.43;100.00
42633;BME280;28261;53.304;-6.284;2023-09-19T00:48:15;99642.00;;;11.44;100.00
42633;BME280;28261;53.304;-6.284;2023-09-19T00:50:21;99635.00;;;11.43;100.00
42633;BME280;28261;53.304;-6.284;2023-09-19T00:52:27;99626.06;;;11.44;100.00
42633;BME280;28261;53.304;-6.284;2023-09-19T00:54:30;99620.75;;;11.44;100.00
42633;BME280;28261;53.304;-6.284;2023-09-19T00:56:35;99617.97;;;11.46;100.00
42633;BME280;28261;53.304;-6.284;2023-09-19T00:58:40;99615.16;;;11.47;100.00
42633;BME280;28261;53.304;-6.284;2023-09-19T01:00:43;99609.72;;;11.49;100.00
42633;BME280;28261;53.304;-6.284;2023-09-19T01:02:47;99607.91;;;11.49;100.00
42633;BME280;28261;53.304;-6.284;2023-09-19T01:04:51;99605.97;;;11.51;100.00
42633;BME280;28261;53.304;-6.284;2023-09-19T01:06:55;99607.78;;;11.51;100.00
42633;BME280;28261;53.304;-6.284;2023-09-19T01:09:02;99599.25;;;11.47;100.00
42633;BME280;28261;53.304;-6.284;2023-09-19T01:11:13;99597.41;;;11.38;100.00
42633;BME280;28261;53.304;-6.284;2023-09-19T01:13:22;99584.13;;;11.28;100.00
42633;BME280;28261;53.304;-6.284;2023-09-19T01:15:49;99583.00;;;11.21;100.00
42633;BME280;28261;53.304;-6.284;2023-09-19T01:18:00;99575.69;;;11.13;100.00
42633;BME280;28261;53.304;-6.284;2023-09-19T01:20:23;99573.72;;;11.06;100.00
42633;BME280;28261;53.304;-6.284;2023-09-19T01:22:37;99574.25;;;10.99;100.00
42633;BME280;28261;53.304;-6.284;2023-09-19T01:27:49;99548.41;;;10.92;100.00
42633;BME280;28261;53.304;-6.284;2023-09-19T01:30:08;99536.25;;;10.89;100.00
42633;BME280;28261;53.304;-6.284;2023-09-19T01:32:15;99533.72;;;10.88;100.00
42633;BME280;28261;53.304;-6.284;2023-09-19T01:34:24;99529.41;;;10.87;100.00
42633;BME280;28261;53.304;-6.284;2023-09-19T01:36:30;99527.59;;;10.87;100.00
42633;BME280;28261;53.304;-6.284;2023-09-19T01:38:36;99524.00;;;10.88;100.00
42633;BME280;28261;53.304;-6.284;2023-09-19T01:40:42;99515.91;;;10.90;100.00
42633;BME280;28261;53.304;-6.284;2023-09-19T01:42:50;99507.09;;;10.89;100.00
42633;BME280;28261;53.304;-6.284;2023-09-19T01:45:03;99491.06;;;10.91;100.00
42633;BME280;28261;53.304;-6.284;2023-09-19T01:47:24;99480.31;;;10.92;100.00
42633;BME280;28261;53.304;-6.284;2023-09-19T01:49:36;99478.22;;;10.96;100.00
42633;BME280;28261;53.304;-6.284;2023-09-19T01:51:45;99467.47;;;10.97;100.00
42633;BME280;28261;53.304;-6.284;2023-09-19T01:53:53;99463.72;;;11.00;100.00
42633;BME280;28261;53.304;-6.284;2023-09-19T01:55:59;99460.91;;;11.01;100.00
42633;BME280;28261;53.304;-6.284;2023-09-19T01:58:08;99447.56;;;11.03;100.00
42633;BME280;28261;53.304;-6.284;2023-09-19T02:00:16;99445.59;;;11.05;100.00
42633;BME280;28261;53.304;-6.284;2023-09-19T02:02:24;99424.09;;;11.08;100.00
42633;BME280;28261;53.304;-6.284;2023-09-19T02:04:28;99433.72;;;11.09;100.00
42633;BME280;28261;53.304;-6.284;2023-09-19T02:06:32;99428.13;;;11.12;100.00
42633;BME280;28261;53.304;-6.284;2023-09-19T02:08:36;99418.25;;;11.14;100.00
42633;BME280;28261;53.304;-6.284;2023-09-19T02:10:41;99414.47;;;11.17;100.00
42633;BME280;28261;53.304;-6.284;2023-09-19T02:12:44;99407.06;;;11.21;100.00
42633;BME280;28261;53.304;-6.284;2023-09-19T02:14:48;99401.50;;;11.24;100.00
42633;BME280;28261;53.304;-6.284;2023-09-19T02:16:50;99410.00;;;11.27;100.00
42633;BME280;28261;53.304;-6.284;2023-09-19T02:18:55;99406.22;;;11.30;100.00
42633;BME280;28261;53.304;-6.284;2023-09-19T02:20:58;99405.94;;;11.33;100.00
42633;BME280;28261;53.304;-6.284;2023-09-19T02:23:02;99388.75;;;11.37;100.00
42633;BME280;28261;53.304;-6.284;2023-09-19T02:25:06;99396.47;;;11.40;100.00
42633;BME280;28261;53.304;-6.284;2023-09-19T02:27:10;99392.53;;;11.44;100.00
42633;BME280;28261;53.304;-6.284;2023-09-19T02:29:16;99371.03;;;11.47;100.00
42633;BME280;28261;53.304;-6.284;2023-09-19T02:31:18;99367.41;;;11.48;100.00
42633;BME280;28261;53.304;-6.284;2023-09-19T02:33:22;99349.50;;;11.50;100.00
42633;BME280;28261;53.304;-6.284;2023-09-19T02:35:29;99342.41;;;11.51;100.00
42633;BME280;28261;53.304;-6.284;2023-09-19T02:37:37;99335.25;;;11.51;100.00
42633;BME280;28261;53.304;-6.284;2023-09-19T02:39:40;99335.25;;;11.51;100.00
42633;BME280;28261;53.304;-6.284;2023-09-19T02:41:44;99322.97;;;11.50;100.00
42633;BME280;28261;53.304;-6.284;2023-09-19T02:43:48;99323.09;;;11.49;100.00
42633;BME280;28261;53.304;-6.284;2023-09-19T02:45:51;99311.66;;;11.48;100.00
42633;BME280;28261;53.304;-6.284;2023-09-19T02:47:55;99304.38;;;11.50;100.00
42633;BME280;28261;53.304;-6.284;2023-09-19T02:49:59;99299.06;;;11.50;100.00
42633;BME280;28261;53.304;-6.284;2023-09-19T02:52:03;99283.84;;;11.52;100.00
42633;BME280;28261;53.304;-6.284;2023-09-19T02:54:07;99280.19;;;11.54;100.00
42633;BME280;28261;53.304;-6.284;2023-09-19T02:56:10;99267.63;;;11.56;100.00
42633;BME280;28261;53.304;-6.284;2023-09-19T02:58:16;99250.75;;;11.57;100.00
42633;BME280;28261;53.304;-6.284;2023-09-19T03:00:22;99250.59;;;11.58;100.00
42633;BME280;28261;53.304;-6.284;2023-09-19T03:02:26;99241.50;;;11.61;100.00
42633;BME280;28261;53.304;-6.284;2023-09-19T03:04:30;99234.22;;;11.63;100.00
42633;BME280;28261;53.304;-6.284;2023-09-19T03:06:33;99229.63;;;11.65;100.00
42633;BME280;28261;53.304;-6.284;2023-09-19T03:08:37;99214.34;;;11.67;100.00
42633;BME280;28261;53.304;-6.284;2023-09-19T03:10:41;99201.78;;;11.69;100.00
42633;BME280;28261;53.304;-6.284;2023-09-19T03:12:45;99190.03;;;11.72;100.00
42633;BME280;28261;53.304;-6.284;2023-09-19T03:14:49;99190.88;;;11.72;100.00
42633;BME280;28261;53.304;-6.284;2023-09-19T03:16:54;99186.94;;;11.76;100.00
42633;BME280;28261;53.304;-6.284;2023-09-19T03:18:58;99176.16;;;11.78;100.00
42633;BME280;28261;53.304;-6.284;2023-09-19T03:21:04;99168.03;;;11.79;100.00
42633;BME280;28261;53.304;-6.284;2023-09-19T03:23:08;99166.09;;;11.81;100.00
42633;BME280;28261;53.304;-6.284;2023-09-19T03:25:13;99148.47;;;11.80;100.00
42633;BME280;28261;53.304;-6.284;2023-09-19T03:27:19;99141.22;;;11.82;100.00
42633;BME280;28261;53.304;-6.284;2023-09-19T03:29:23;99125.28;;;11.82;100.00
42633;BME280;28261;53.304;-6.284;2023-09-19T03:31:28;99112.69;;;11.84;100.00
42633;BME280;28261;53.304;-6.284;2023-09-19T03:33:32;99102.06;;;11.84;100.00
42633;BME280;28261;53.304;-6.284;2023-09-19T03:35:36;99087.97;;;11.84;100.00
42633;BME280;28261;53.304;-6.284;2023-09-19T03:37:40;99078.16;;;11.84;100.00
42633;BME280;28261;53.304;-6.284;2023-09-19T03:39:44;99072.69;;;11.86;100.00
42633;BME280;28261;53.304;-6.284;2023-09-19T03:41:49;99055.63;;;11.89;100.00
42633;BME280;28261;53.304;-6.284;2023-09-19T03:43:52;99051.00;;;11.91;100.00
42633;BME280;28261;53.304;-6.284;2023-09-19T03:45:56;99041.06;;;11.93;100.00
42633;BME280;28261;53.304;-6.284;2023-09-19T03:47:58;99023.72;;;11.98;100.00
42633;BME280;28261;53.304;-6.284;2023-09-19T03:50:02;99025.06;;;12.02;100.00
42633;BME280;28261;53.304;-6.284;2023-09-19T03:52:05;99011.34;;;12.07;100.00
42633;BME280;28261;53.304;-6.284;2023-09-19T03:54:08;98988.78;;;12.11;100.00
42633;BME280;28261;53.304;-6.284;2023-09-19T03:56:11;98993.63;;;12.16;100.00
42633;BME280;28261;53.304;-6.284;2023-09-19T03:58:16;98984.34;;;12.20;100.00
42633;BME280;28261;53.304;-6.284;2023-09-19T04:00:20;98969.78;;;12.24;100.00
42633;BME280;28261;53.304;-6.284;2023-09-19T04:02:26;98958.69;;;12.29;100.00
42633;BME280;28261;53.304;-6.284;2023-09-19T04:04:35;98956.53;;;12.32;100.00
42633;BME280;28261;53.304;-6.284;2023-09-19T04:06:38;98950.75;;;12.37;100.00
42633;BME280;28261;53.304;-6.284;2023-09-19T04:08:42;98931.84;;;12.40;100.00
42633;BME280;28261;53.304;-6.284;2023-09-19T04:10:46;98927.88;;;12.44;100.00
42633;BME280;28261;53.304;-6.284;2023-09-19T04:12:52;98918.59;;;12.48;100.00
42633;BME280;28261;53.304;-6.284;2023-09-19T04:14:58;98903.97;;;12.52;100.00
42633;BME280;28261;53.304;-6.284;2023-09-19T04:17:01;98899.19;;;12.56;100.00
42633;BME280;28261;53.304;-6.284;2023-09-19T04:19:06;98899.03;;;12.58;100.00
42633;BME280;28261;53.304;-6.284;2023-09-19T04:21:09;98893.53;;;12.59;100.00
42633;BME280;28261;53.304;-6.284;2023-09-19T04:23:13;98886.06;;;12.63;100.00
42633;BME280;28261;53.304;-6.284;2023-09-19T04:25:15;98893.75;;;12.66;100.00
42633;BME280;28261;53.304;-6.284;2023-09-19T04:27:20;98884.75;;;12.67;100.00
42633;BME280;28261;53.304;-6.284;2023-09-19T04:29:23;98864.16;;;12.69;100.00
42633;BME280;28261;53.304;-6.284;2023-09-19T04:31:29;98847.88;;;12.72;100.00
42633;BME280;28261;53.304;-6.284;2023-09-19T04:33:33;98863.50;;;12.75;100.00
42633;BME280;28261;53.304;-6.284;2023-09-19T04:35:37;98852.72;;;12.77;100.00
42633;BME280;28261;53.304;-6.284;2023-09-19T04:37:41;98833.94;;;12.78;100.00
42633;BME280;28261;53.304;-6.284;2023-09-19T04:39:44;98844.25;;;12.81;100.00
42633;BME280;28261;53.304;-6.284;2023-09-19T04:41:48;98840.59;;;12.82;100.00
42633;BME280;28261;53.304;-6.284;2023-09-19T04:43:52;98835.94;;;12.84;100.00
42633;BME280;28261;53.304;-6.284;2023-09-19T04:45:55;98824.31;;;12.85;100.00
42633;BME280;28261;53.304;-6.284;2023-09-19T04:48:00;98826.78;;;12.87;100.00
42633;BME280;28261;53.304;-6.284;2023-09-19T04:50:08;98822.97;;;12.90;100.00
42633;BME280;28261;53.304;-6.284;2023-09-19T04:52:15;98811.34;;;12.91;100.00
42633;BME280;28261;53.304;-6.284;2023-09-19T04:54:19;98793.22;;;12.94;100.00
42633;BME280;28261;53.304;-6.284;2023-09-19T04:56:22;98818.81;;;12.95;100.00
42633;BME280;28261;53.304;-6.284;2023-09-19T04:58:26;98815.69;;;13.00;100.00
42633;BME280;28261;53.304;-6.284;2023-09-19T05:00:29;98799.38;;;13.03;100.00
42633;BME280;28261;53.304;-6.284;2023-09-19T05:02:32;98786.75;;;13.05;100.00
42633;BME280;28261;53.304;-6.284;2023-09-19T05:04:38;98803.38;;;13.07;100.00
42633;BME280;28261;53.304;-6.284;2023-09-19T05:06:41;98793.38;;;13.09;100.00
42633;BME280;28261;53.304;-6.284;2023-09-19T05:08:48;98792.41;;;13.10;100.00
42633;BME280;28261;53.304;-6.284;2023-09-19T05:10:53;98813.34;;;13.13;100.00
42633;BME280;28261;53.304;-6.284;2023-09-19T05:12:57;98801.53;;;13.16;100.00
42633;BME280;28261;53.304;-6.284;2023-09-19T05:15:01;98811.19;;;13.17;100.00
42633;BME280;28261;53.304;-6.284;2023-09-19T05:17:05;98809.03;;;13.20;100.00
42633;BME280;28261;53.304;-6.284;2023-09-19T05:19:10;98800.72;;;13.24;100.00
42633;BME280;28261;53.304;-6.284;2023-09-19T05:21:15;98773.75;;;13.27;100.00
42633;BME280;28261;53.304;-6.284;2023-09-19T05:23:19;98781.41;;;13.30;100.00
42633;BME280;28261;53.304;-6.284;2023-09-19T05:25:23;98784.72;;;13.32;100.00
42633;BME280;28261;53.304;-6.284;2023-09-19T05:27:26;98782.59;;;13.35;100.00
42633;BME280;28261;53.304;-6.284;2023-09-19T05:29:30;98775.09;;;13.39;100.00
42633;BME280;28261;53.304;-6.284;2023-09-19T05:31:33;98755.31;;;13.42;100.00
42633;BME280;28261;53.304;-6.284;2023-09-19T05:33:38;98796.72;;;13.44;100.00
42633;BME280;28261;53.304;-6.284;2023-09-19T05:35:42;98782.25;;;13.47;100.00
42633;BME280;28261;53.304;-6.284;2023-09-19T05:37:47;98779.25;;;13.50;100.00
42633;BME280;28261;53.304;-6.284;2023-09-19T05:39:52;98780.06;;;13.50;100.00
42633;BME280;28261;53.304;-6.284;2023-09-19T05:41:56;98790.38;;;13.53;100.00
42633;BME280;28261;53.304;-6.284;2023-09-19T05:44:00;98785.72;;;13.56;100.00
42633;BME280;28261;53.304;-6.284;2023-09-19T05:46:05;98772.09;;;13.59;100.00
42633;BME280;28261;53.304;-6.284;2023-09-19T05:48:11;98769.88;;;13.62;100.00
42633;BME280;28261;53.304;-6.284;2023-09-19T05:50:15;98763.56;;;13.63;100.00
42633;BME280;28261;53.304;-6.284;2023-09-19T05:52:19;98745.56;;;13.65;100.00
42633;BME280;28261;53.304;-6.284;2023-09-19T05:54:25;98752.56;;;13.66;100.00
42633;BME280;28261;53.304;-6.284;2023-09-19T05:56:29;98741.09;;;13.66;100.00
42633;BME280;28261;53.304;-6.284;2023-09-19T05:58:33;98741.09;;;13.66;100.00
42633;BME280;28261;53.304;-6.284;2023-09-19T06:00:36;98735.78;;;13.66;100.00
42633;BME280;28261;53.304;-6.284;2023-09-19T06:02:41;98733.13;;;13.66;100.00
42633;BME280;28261;53.304;-6.284;2023-09-19T06:04:43;98762.41;;;13.66;100.00
42633;BME280;28261;53.304;-6.284;2023-09-19T06:06:47;98738.09;;;13.69;100.00
42633;BME280;28261;53.304;-6.284;2023-09-19T06:08:50;98761.69;;;13.72;100.00
42633;BME280;28261;53.304;-6.284;2023-09-19T06:10:55;98752.38;;;13.76;100.00
42633;BME280;28261;53.304;-6.284;2023-09-19T06:12:59;98755.03;;;13.76;100.00
42633;BME280;28261;53.304;-6.284;2023-09-19T06:15:03;98754.84;;;13.78;100.00
42633;BME280;28261;53.304;-6.284;2023-09-19T06:17:07;98747.72;;;13.78;100.00
42633;BME280;28261;53.304;-6.284;2023-09-19T06:19:10;98751.03;;;13.80;100.00
42633;BME280;28261;53.304;-6.284;2023-09-19T06:21:14;98750.03;;;13.81;100.00
42633;BME280;28261;53.304;-6.284;2023-09-19T06:23:17;98741.03;;;13.82;100.00
42633;BME280;28261;53.304;-6.284;2023-09-19T06:25:22;98743.34;;;13.85;100.00
42633;BME280;28261;53.304;-6.284;2023-09-19T06:27:27;98737.84;;;13.87;100.00
42633;BME280;28261;53.304;-6.284;2023-09-19T06:29:29;98734.19;;;13.88;100.00
42633;BME280;28261;53.304;-6.284;2023-09-19T06:31:33;98744.50;;;13.91;100.00
42633;BME280;28261;53.304;-6.284;2023-09-19T06:33:37;98744.31;;;13.93;100.00
42633;BME280;28261;53.304;-6.284;2023-09-19T06:35:41;98727.16;;;13.95;100.00
42633;BME280;28261;53.304;-6.284;2023-09-19T06:37:46;98757.94;;;13.98;100.00
42633;BME280;28261;53.304;-6.284;2023-09-19T06:39:50;98716.81;;;14.00;100.00
42633;BME280;28261;53.304;-6.284;2023-09-19T06:41:54;98743.78;;;14.05;100.00
42633;BME280;28261;53.304;-6.284;2023-09-19T06:43:59;98745.25;;;14.08;100.00
42633;BME280;28261;53.304;-6.284;2023-09-19T06:46:03;98743.91;;;14.12;100.00
42633;BME280;28261;53.304;-6.284;2023-09-19T06:48:09;98739.88;;;14.16;100.00
42633;BME280;28261;53.304;-6.284;2023-09-19T06:50:14;98736.88;;;14.19;100.00
42633;BME280;28261;53.304;-6.284;2023-09-19T06:52:16;98727.88;;;14.20;100.00
42633;BME280;28261;53.304;-6.284;2023-09-19T06:54:24;98737.81;;;14.27;100.00
42633;BME280;28261;53.304;-6.284;2023-09-19T06:56:28;98740.97;;;14.30;100.00
42633;BME280;28261;53.304;-6.284;2023-09-19T06:58:31;98745.13;;;14.33;100.00
42633;BME280;28261;53.304;-6.284;2023-09-19T07:00:36;98742.09;;;14.36;100.00
42633;BME280;28261;53.304;-6.284;2023-09-19T07:02:40;98748.09;;;14.38;100.00
42633;BME280;28261;53.304;-6.284;2023-09-19T07:04:44;98727.41;;;14.40;100.00
42633;BME280;28261;53.304;-6.284;2023-09-19T07:06:49;98736.88;;;14.43;100.00
42633;BME280;28261;53.304;-6.284;2023-09-19T07:08:53;98748.03;;;14.46;100.00
42633;BME280;28261;53.304;-6.284;2023-09-19T07:10:57;98747.69;;;14.49;100.00
42633;BME280;28261;53.304;-6.284;2023-09-19T07:13:00;98748.97;;;14.53;100.00
42633;BME280;28261;53.304;-6.284;2023-09-19T07:15:05;98750.28;;;14.58;100.00
42633;BME280;28261;53.304;-6.284;2023-09-19T07:17:10;98753.44;;;14.61;100.00
42633;BME280;28261;53.304;-6.284;2023-09-19T07:19:13;98761.94;;;14.65;100.00
42633;BME280;28261;53.304;-6.284;2023-09-19T07:21:18;98773.91;;;14.69;100.00
42633;BME280;28261;53.304;-6.284;2023-09-19T07:23:21;98774.38;;;14.72;100.00
42633;BME280;28261;53.304;-6.284;2023-09-19T07:25:25;98758.84;;;14.76;100.00
42633;BME280;28261;53.304;-6.284;2023-09-19T07:27:29;98785.19;;;14.79;100.00
42633;BME280;28261;53.304;-6.284;2023-09-19T07:29:32;98790.81;;;14.84;100.00
42633;BME280;28261;53.304;-6.284;2023-09-19T07:31:36;98788.59;;;14.88;100.00
42633;BME280;28261;53.304;-6.284;2023-09-19T07:33:40;98789.72;;;14.94;100.00
42633;BME280;28261;53.304;-6.284;2023-09-19T07:35:45;98785.22;;;14.94;100.00
42633;BME280;28261;53.304;-6.284;2023-09-19T07:37:48;98795.72;;;14.96;100.00
42633;BME280;28261;53.304;-6.284;2023-09-19T07:39:54;98792.88;;;14.97;100.00
42633;BME280;28261;53.304;-6.284;2023-09-19T07:41:58;98780.81;;;15.01;100.00
42633;BME280;28261;53.304;-6.284;2023-09-19T07:44:02;98796.03;;;15.01;100.00
42633;BME280;28261;53.304;-6.284;2023-09-19T07:46:06;98794.00;;;15.03;100.00
42633;BME280;28261;53.304;-6.284;2023-09-19T07:48:11;98814.34;;;15.04;100.00
42633;BME280;28261;53.304;-6.284;2023-09-19T07:50:19;98814.78;;;15.07;100.00
42633;BME280;28261;53.304;-6.284;2023-09-19T07:52:23;98815.44;;;15.10;100.00
42633;BME280;28261;53.304;-6.284;2023-09-19T07:54:27;98799.25;;;15.11;100.00
42633;BME280;28261;53.304;-6.284;2023-09-19T07:56:33;98804.59;;;15.11;100.00
42633;BME280;28261;53.304;-6.284;2023-09-19T07:58:39;98808.09;;;15.12;100.00
42633;BME280;28261;53.304;-6.284;2023-09-19T08:00:46;98807.94;;;15.13;100.00
42633;BME280;28261;53.304;-6.284;2023-09-19T08:02:50;98826.25;;;15.16;100.00
42633;BME280;28261;53.304;-6.284;2023-09-19T08:05:05;98798.19;;;15.20;100.00
42633;BME280;28261;53.304;-6.284;2023-09-19T08:07:13;98808.50;;;15.23;100.00
42633;BME280;28261;53.304;-6.284;2023-09-19T08:09:17;98806.94;;;15.29;100.00
42633;BME280;28261;53.304;-6.284;2023-09-19T08:11:26;98814.41;;;15.34;100.00
42633;BME280;28261;53.304;-6.284;2023-09-19T08:13:33;98809.34;;;15.39;100.00
42633;BME280;28261;53.304;-6.284;2023-09-19T08:15:43;98799.63;;;15.46;100.00
42633;BME280;28261;53.304;-6.284;2023-09-19T08:17:47;98837.28;;;15.51;100.00
42633;BME280;28261;53.304;-6.284;2023-09-19T08:19:52;98814.56;;;15.55;100.00
42633;BME280;28261;53.304;-6.284;2023-09-19T08:21:56;98803.31;;;15.60;100.00
42633;BME280;28261;53.304;-6.284;2023-09-19T08:24:02;98798.44;;;15.64;100.00
42633;BME280;28261;53.304;-6.284;2023-09-19T08:26:07;98807.75;;;15.68;100.00
42633;BME280;28261;53.304;-6.284;2023-09-19T08:28:11;98810.69;;;15.73;100.00
42633;BME280;28261;53.304;-6.284;2023-09-19T08:30:21;98796.78;;;15.78;100.00
42633;BME280;28261;53.304;-6.284;2023-09-19T08:32:28;98807.78;;;15.83;100.00
42633;BME280;28261;53.304;-6.284;2023-09-19T08:34:32;98824.94;;;15.88;100.00
42633;BME280;28261;53.304;-6.284;2023-09-19T08:36:36;98812.28;;;15.97;100.00
42633;BME280;28261;53.304;-6.284;2023-09-19T08:38:41;98806.03;;;16.05;100.00
42633;BME280;28261;53.304;-6.284;2023-09-19T08:40:46;98816.25;;;16.16;100.00
42633;BME280;28261;53.304;-6.284;2023-09-19T08:42:50;98801.75;;;16.26;100.00
42633;BME280;28261;53.304;-6.284;2023-09-19T08:44:53;98822.03;;;16.35;100.00
42633;BME280;28261;53.304;-6.284;2023-09-19T08:47:04;98836.31;;;16.42;100.00
42633;BME280;28261;53.304;-6.284;2023-09-19T08:49:19;98817.66;;;16.49;100.00
42633;BME280;28261;53.304;-6.284;2023-09-19T08:51:33;98808.50;;;16.58;100.00
42633;BME280;28261;53.304;-6.284;2023-09-19T08:53:50;98827.94;;;16.67;100.00
42633;BME280;28261;53.304;-6.284;2023-09-19T08:55:55;98828.84;;;16.74;100.00
42633;BME280;28261;53.304;-6.284;2023-09-19T08:58:01;98818.00;;;16.82;100.00
42633;BME280;28261;53.304;-6.284;2023-09-19T09:00:06;98838.50;;;16.90;100.00
42633;BME280;28261;53.304;-6.284;2023-09-19T09:02:12;98841.66;;;16.94;100.00
42633;BME280;28261;53.304;-6.284;2023-09-19T09:04:17;98834.25;;;16.96;100.00
42633;BME280;28261;53.304;-6.284;2023-09-19T09:06:22;98855.19;;;16.92;100.00
42633;BME280;28261;53.304;-6.284;2023-09-19T09:08:26;98854.72;;;16.88;100.00
42633;BME280;28261;53.304;-6.284;2023-09-19T09:10:30;98857.34;;;16.82;100.00
42633;BME280;28261;53.304;-6.284;2023-09-19T09:12:36;98867.56;;;16.78;100.00
42633;BME280;28261;53.304;-6.284;2023-09-19T09:14:45;98876.38;;;16.72;100.00
42633;BME280;28261;53.304;-6.284;2023-09-19T09:16:52;98868.47;;;16.64;100.00
42633;BME280;28261;53.304;-6.284;2023-09-19T09:18:59;98881.38;;;16.60;100.00
42633;BME280;28261;53.304;-6.284;2023-09-19T09:21:03;98888.94;;;16.56;100.00
42633;BME280;28261;53.304;-6.284;2023-09-19T09:23:07;98887.66;;;16.52;100.00
42633;BME280;28261;53.304;-6.284;2023-09-19T09:25:12;98891.34;;;16.51;100.00
42633;BME280;28261;53.304;-6.284;2023-09-19T09:27:15;98896.91;;;16.50;100.00
42633;BME280;28261;53.304;-6.284;2023-09-19T09:29:24;98892.56;;;16.49;100.00
42633;BME280;28261;53.304;-6.284;2023-09-19T09:31:43;98888.03;;;16.49;100.00
42633;BME280;28261;53.304;-6.284;2023-09-19T09:33:53;98890.06;;;16.47;100.00
42633;BME280;28261;53.304;-6.284;2023-09-19T09:35:58;98899.28;;;16.45;100.00
42633;BME280;28261;53.304;-6.284;2023-09-19T09:38:04;98901.50;;;16.41;100.00
42633;BME280;28261;53.304;-6.284;2023-09-19T09:40:11;98898.19;;;16.39;100.00
42633;BME280;28261;53.304;-6.284;2023-09-19T09:42:38;98905.56;;;16.37;100.00
42633;BME280;28261;53.304;-6.284;2023-09-19T09:44:44;98901.41;;;16.34;100.00
42633;BME280;28261;53.304;-6.284;2023-09-19T09:46:48;98904.94;;;16.35;100.00
42633;BME280;28261;53.304;-6.284;2023-09-19T09:49:12;98903.25;;;16.34;100.00
42633;BME280;28261;53.304;-6.284;2023-09-19T09:51:29;98898.91;;;16.33;100.00
42633;BME280;28261;53.304;-6.284;2023-09-19T09:53:33;98902.59;;;16.32;100.00
42633;BME280;28261;53.304;-6.284;2023-09-19T09:56:00;98904.94;;;16.35;100.00
42633;BME280;28261;53.304;-6.284;2023-09-19T09:58:18;98895.97;;;16.42;100.00
42633;BME280;28261;53.304;-6.284;2023-09-19T10:00:26;98915.44;;;16.51;100.00
42633;BME280;28261;53.304;-6.284;2023-09-19T10:02:44;98904.81;;;16.58;100.00
42633;BME280;28261;53.304;-6.284;2023-09-19T10:04:49;98904.44;;;16.61;100.00
42633;BME280;28261;53.304;-6.284;2023-09-19T10:07:02;98915.94;;;16.62;100.00
42633;BME280;28261;53.304;-6.284;2023-09-19T10:09:09;98901.94;;;16.60;100.00
42633;BME280;28261;53.304;-6.284;2023-09-19T10:11:18;98904.16;;;16.56;100.00
42633;BME280;28261;53.304;-6.284;2023-09-19T10:13:30;98910.72;;;16.53;100.00
42633;BME280;28261;53.304;-6.284;2023-09-19T10:15:37;98927.13;;;16.50;100.00
42633;BME280;28261;53.304;-6.284;2023-09-19T10:17:44;98924.00;;;16.47;100.00
42633;BME280;28261;53.304;-6.284;2023-09-19T10:19:54;98927.03;;;16.44;100.00
42633;BME280;28261;53.304;-6.284;2023-09-19T10:22:01;98919.41;;;16.40;100.00
42633;BME280;28261;53.304;-6.284;2023-09-19T10:24:07;98921.41;;;16.38;100.00
42633;BME280;28261;53.304;-6.284;2023-09-19T10:26:12;98937.47;;;16.38;100.00
42633;BME280;28261;53.304;-6.284;2023-09-19T10:28:21;98922.41;;;16.37;100.00
42633;BME280;28261;53.304;-6.284;2023-09-19T10:30:25;98931.91;;;16.40;100.00
42633;BME280;28261;53.304;-6.284;2023-09-19T10:32:35;98931.56;;;16.43;100.00
42633;BME280;28261;53.304;-6.284;2023-09-19T10:34:41;98921.31;;;16.47;100.00
42633;BME280;28261;53.304;-6.284;2023-09-19T10:36:46;98933.88;;;16.46;100.00
42633;BME280;28261;53.304;-6.284;2023-09-19T10:38:51;98925.84;;;16.46;100.00
42633;BME280;28261;53.304;-6.284;2023-09-19T10:40:59;98919.13;;;16.50;100.00
42633;BME280;28261;53.304;-6.284;2023-09-19T10:43:05;98929.53;;;16.60;100.00
42633;BME280;28261;53.304;-6.284;2023-09-19T10:45:10;98918.91;;;16.67;100.00
42633;BME280;28261;53.304;-6.284;2023-09-19T10:47:16;98916.13;;;16.75;100.00
42633;BME280;28261;53.304;-6.284;2023-09-19T10:49:23;98930.06;;;16.85;100.00
42633;BME280;28261;53.304;-6.284;2023-09-19T10:51:30;98925.25;;;16.96;100.00